Time;durP1;ratioP1;P1;durP2;ratioP2;P2;SDS_P1;SDS_P2;PMS_P1;PMS_P2;Temp;Humidity;BMP_temperature;BMP_pressure;BME280_temperature;BME280_humidity;BME280_pressure;Samples;Min_cycle;Max_cycle;Signal;HPM_P1;HPM_P2
2023/07/21 00:01:08;;;;;;;1.27;0.57;;;18.90;66.30;;;;;;5093738;28;20034;-84
2023/07/21 00:03:35;;;;;;;2.35;0.80;;;18.90;66.60;;;;;;5093655;28;20032;-84
2023/07/21 00:06:04;;;;;;;4.70;0.90;;;18.80;67.80;;;;;;5093962;28;20015;-84
2023/07/21 00:08:30;;;;;;;6.47;0.93;;;18.70;67.40;;;;;;5112079;28;20047;-83
2023/07/21 00:10:58;;;;;;;2.25;1.20;;;18.70;66.30;;;;;;5093826;28;20488;-83
2023/07/21 00:13:29;;;;;;;3.97;0.80;;;18.80;65.40;;;;;;5093701;28;20036;-84
2023/07/21 00:15:55;;;;;;;4.65;0.80;;;18.80;64.20;;;;;;5093102;28;20031;-80
2023/07/21 00:18:22;;;;;;;7.68;1.00;;;18.90;63.50;;;;;;5111556;28;20544;-85
2023/07/21 00:20:49;;;;;;;2.97;0.90;;;19.10;63.30;;;;;;5094963;28;20076;-85
2023/07/21 00:23:16;;;;;;;2.50;0.80;;;19.10;62.40;;;;;;5094819;28;20024;-85
2023/07/21 00:25:45;;;;;;;2.22;0.90;;;19.20;62.00;;;;;;5112729;28;20389;-84
2023/07/21 00:28:11;;;;;;;2.35;0.75;;;19.30;61.30;;;;;;5112361;28;20024;-84
2023/07/21 00:30:37;;;;;;;5.38;0.70;;;19.40;62.30;;;;;;5090816;28;20505;-84
2023/07/21 00:33:03;;;;;;;3.10;0.82;;;19.50;61.90;;;;;;5092182;28;20031;-85
2023/07/21 00:35:29;;;;;;;6.63;0.80;;;19.50;62.10;;;;;;5090843;28;20120;-85
2023/07/21 00:38:00;;;;;;;3.75;0.90;;;19.50;61.90;;;;;;5090826;28;20055;-83
2023/07/21 00:40:26;;;;;;;2.65;0.70;;;19.50;62.40;;;;;;5091882;28;20020;-84
2023/07/21 00:42:52;;;;;;;1.42;0.57;;;19.50;63.00;;;;;;5091061;28;20540;-83
2023/07/21 00:45:17;;;;;;;1.95;0.80;;;19.60;63.40;;;;;;5091934;28;20060;-84
2023/07/21 00:47:44;;;;;;;4.93;0.82;;;19.60;63.80;;;;;;5091701;28;20051;-84
2023/07/21 00:50:11;;;;;;;0.98;0.60;;;19.60;64.90;;;;;;5090279;28;20039;-83
2023/07/21 00:52:38;;;;;;;3.80;0.90;;;19.60;65.10;;;;;;5092054;28;20020;-84
2023/07/21 00:55:05;;;;;;;8.10;1.20;;;19.60;65.50;;;;;;5095560;28;20131;-83
2023/07/21 00:57:32;;;;;;;4.18;0.90;;;19.60;65.90;;;;;;5095754;28;20388;-84
2023/07/21 00:59:58;;;;;;;5.78;1.15;;;19.60;66.30;;;;;;5094555;28;20497;-84
2023/07/21 01:02:24;;;;;;;3.88;0.77;;;19.60;66.90;;;;;;5096201;28;20032;-84
2023/07/21 01:04:51;;;;;;;3.67;0.93;;;19.60;67.30;;;;;;5096070;28;20028;-85
2023/07/21 01:07:18;;;;;;;6.82;0.80;;;19.60;67.50;;;;;;5096337;28;20020;-84
2023/07/21 01:09:45;;;;;;;2.38;0.80;;;19.60;68.00;;;;;;5095802;28;20339;-84
2023/07/21 01:12:11;;;;;;;2.50;1.17;;;19.60;68.30;;;;;;5095852;28;20028;-85
2023/07/21 01:14:38;;;;;;;7.13;1.13;;;19.70;69.10;;;;;;5094879;28;20039;-84
2023/07/21 01:17:07;;;;;;;2.40;0.70;;;19.70;69.20;;;;;;5093609;28;20027;-85
2023/07/21 01:19:36;;;;;;;2.67;1.00;;;19.60;69.20;;;;;;5094546;28;20047;-85
2023/07/21 01:22:24;;;;;;;2.05;0.90;;;19.60;69.30;;;;;;5096107;28;20020;-84
2023/07/21 01:24:49;;;;;;;22.15;0.95;;;19.60;69.50;;;;;;5095822;28;20028;-84
2023/07/21 01:27:23;;;;;;;2.28;1.08;;;19.60;69.60;;;;;;5094429;28;20024;-85
2023/07/21 01:29:51;;;;;;;1.45;0.70;;;19.50;70.40;;;;;;5094086;28;20044;-85
2023/07/21 01:32:21;;;;;;;3.03;0.85;;;19.50;70.70;;;;;;5095913;28;20058;-86
2023/07/21 01:34:47;;;;;;;2.03;1.00;;;19.50;70.00;;;;;;5094618;28;20042;-86
2023/07/21 01:37:15;;;;;;;2.58;0.80;;;19.40;70.50;;;;;;5095609;28;20107;-85
2023/07/21 01:39:41;;;;;;;1.58;0.80;;;19.40;70.60;;;;;;5093154;28;20038;-83
2023/07/21 01:42:08;;;;;;;1.88;0.65;;;19.30;71.00;;;;;;5093116;28;20038;-84
2023/07/21 01:44:34;;;;;;;3.15;0.70;;;19.20;71.80;;;;;;5094425;28;20392;-84
2023/07/21 01:47:00;;;;;;;1.25;0.70;;;19.20;71.40;;;;;;5094612;28;20385;-84
2023/07/21 01:49:25;;;;;;;5.07;0.95;;;19.10;72.40;;;;;;5093423;28;20032;-84
2023/07/21 01:51:57;;;;;;;1.60;0.60;;;19.10;72.70;;;;;;5093368;28;20026;-84
2023/07/21 01:55:13;;;;;;;3.53;0.90;;;19.20;73.00;;;;;;5094783;28;20024;-84
2023/07/21 01:57:43;;;;;;;4.35;0.80;;;19.30;73.90;;;;;;5032365;28;20407;-85
2023/07/21 02:00:12;;;;;;;3.22;0.70;;;19.20;74.50;;;;;;5089238;28;20036;-83
2023/07/21 02:02:40;;;;;;;3.70;1.27;;;19.20;74.40;;;;;;5093825;28;20603;-84
2023/07/21 02:05:16;;;;;;;2.17;0.80;;;19.10;73.80;;;;;;5092577;28;20020;-81
2023/07/21 02:07:44;;;;;;;2.00;0.80;;;19.10;73.40;;;;;;5092670;28;20107;-83
2023/07/21 02:10:11;;;;;;;5.35;1.00;;;19.20;73.30;;;;;;5094134;28;20034;-83
2023/07/21 02:12:37;;;;;;;6.25;1.15;;;19.10;73.50;;;;;;5092529;28;20492;-83
2023/07/21 02:15:05;;;;;;;3.72;0.93;;;19.10;73.50;;;;;;5093361;28;20077;-85
2023/07/21 02:17:31;;;;;;;3.15;0.90;;;19.10;74.00;;;;;;5093870;28;20035;-85
2023/07/21 02:19:57;;;;;;;3.35;0.85;;;19.10;74.10;;;;;;5094895;28;20024;-86
2023/07/21 02:22:22;;;;;;;3.55;0.90;;;19.10;74.50;;;;;;5093727;28;20058;-84
2023/07/21 02:24:48;;;;;;;2.90;0.90;;;19.10;73.30;;;;;;5093643;28;20032;-83
2023/07/21 02:27:14;;;;;;;3.42;0.88;;;19.20;72.90;;;;;;5093484;28;20027;-84
2023/07/21 02:29:40;;;;;;;3.80;0.90;;;19.20;72.40;;;;;;5097679;28;20053;-85
2023/07/21 02:32:06;;;;;;;4.25;1.02;;;19.30;73.70;;;;;;5095795;28;20500;-84
2023/07/21 02:34:31;;;;;;;2.42;1.00;;;19.40;73.70;;;;;;5095849;28;20031;-85
2023/07/21 02:36:57;;;;;;;2.17;0.80;;;19.50;72.70;;;;;;5095881;28;20027;-83
2023/07/21 02:39:23;;;;;;;6.82;0.80;;;19.50;72.90;;;;;;5096409;28;20395;-83
2023/07/21 02:41:48;;;;;;;4.95;0.90;;;19.60;72.30;;;;;;5113656;28;20032;-84
2023/07/21 02:44:14;;;;;;;4.95;1.02;;;19.60;72.90;;;;;;5095401;28;20499;-84
2023/07/21 02:46:40;;;;;;;1.58;0.73;;;19.60;72.90;;;;;;5095486;28;20024;-84
2023/07/21 02:49:05;;;;;;;2.53;0.90;;;19.60;72.50;;;;;;5114781;28;20107;-84
2023/07/21 02:51:31;;;;;;;2.05;0.90;;;19.60;72.50;;;;;;5095593;28;20042;-84
2023/07/21 02:53:57;;;;;;;4.28;0.80;;;19.60;72.50;;;;;;5114174;28;20065;-84
2023/07/21 02:56:23;;;;;;;2.10;0.80;;;19.50;72.20;;;;;;5114164;28;20036;-84
2023/07/21 02:58:48;;;;;;;2.83;0.80;;;19.50;71.90;;;;;;5095851;28;20020;-85
2023/07/21 03:01:14;;;;;;;2.95;1.20;;;19.40;72.20;;;;;;5095458;28;20030;-85
2023/07/21 03:03:41;;;;;;;3.17;1.20;;;19.40;72.70;;;;;;5114030;28;20491;-83
2023/07/21 03:06:07;;;;;;;2.60;1.00;;;19.30;73.00;;;;;;5113821;28;20080;-85
2023/07/21 03:08:33;;;;;;;1.90;0.90;;;19.30;73.70;;;;;;5095546;28;20023;-83
2023/07/21 03:10:59;;;;;;;5.95;1.15;;;19.20;74.60;;;;;;5113923;28;20404;-85
2023/07/21 03:13:25;;;;;;;5.93;0.95;;;19.10;75.30;;;;;;5113554;28;20050;-84
2023/07/21 03:15:52;;;;;;;5.35;0.60;;;19.10;76.50;;;;;;5112534;28;20032;-84
2023/07/21 03:18:17;;;;;;;3.50;1.27;;;19.10;77.60;;;;;;5113258;28;20023;-84
2023/07/21 03:20:43;;;;;;;2.40;0.90;;;19.10;78.20;;;;;;5095316;28;20399;-83
2023/07/21 03:23:11;;;;;;;4.00;0.93;;;19.10;79.10;;;;;;5095100;28;20567;-84
2023/07/21 03:25:41;;;;;;;5.97;1.00;;;19.10;80.00;;;;;;5113363;28;20024;-84
2023/07/21 03:28:07;;;;;;;2.97;1.15;;;19.10;81.10;;;;;;5095040;28;20392;-84
2023/07/21 03:30:33;;;;;;;2.50;1.15;;;19.10;81.50;;;;;;5113064;28;20050;-84
2023/07/21 03:32:58;;;;;;;4.68;1.20;;;19.10;82.30;;;;;;5094436;28;20488;-84
2023/07/21 03:35:24;;;;;;;5.28;1.00;;;19.20;82.80;;;;;;5094355;28;20422;-85
2023/07/21 03:37:50;;;;;;;4.03;1.27;;;19.30;83.20;;;;;;5112348;28;20647;-84
2023/07/21 03:40:16;;;;;;;4.72;1.48;;;19.30;84.00;;;;;;5094137;28;20430;-86
2023/07/21 03:42:41;;;;;;;3.70;1.13;;;19.40;84.30;;;;;;5094821;28;20015;-84
2023/07/21 03:45:08;;;;;;;7.45;1.67;;;19.40;85.60;;;;;;5111611;28;20049;-84
2023/07/21 03:47:35;;;;;;;2.80;1.58;;;19.50;84.80;;;;;;5093808;28;20034;-83
2023/07/21 03:50:01;;;;;;;9.23;1.27;;;19.50;84.90;;;;;;5094036;28;20472;-83
2023/07/21 03:52:27;;;;;;;2.60;1.13;;;19.60;85.50;;;;;;5093932;28;20068;-83
2023/07/21 03:54:53;;;;;;;6.65;1.15;;;19.70;85.90;;;;;;5094053;28;20035;-84
2023/07/21 03:57:20;;;;;;;6.57;1.55;;;19.70;86.10;;;;;;5094176;28;20027;-84
2023/07/21 03:59:47;;;;;;;5.07;1.17;;;19.80;86.00;;;;;;5112346;28;20499;-84
2023/07/21 04:02:12;;;;;;;4.70;0.90;;;19.90;86.00;;;;;;5094157;28;20122;-84
2023/07/21 04:04:38;;;;;;;2.65;1.08;;;19.90;86.20;;;;;;5112438;28;20428;-84
2023/07/21 04:07:05;;;;;;;8.18;1.25;;;19.90;86.10;;;;;;5111609;28;20034;-84
2023/07/21 04:09:34;;;;;;;3.10;1.10;;;19.90;86.40;;;;;;5111412;28;20016;-82
2023/07/21 04:12:00;;;;;;;2.67;1.35;;;19.90;86.40;;;;;;5093534;28;20403;-84
2023/07/21 04:14:25;;;;;;;3.67;1.27;;;19.90;86.40;;;;;;5093993;28;20027;-83
2023/07/21 04:16:54;;;;;;;2.08;0.93;;;20.00;85.80;;;;;;5112410;28;20036;-82
2023/07/21 04:19:20;;;;;;;5.68;1.30;;;20.10;85.40;;;;;;5112094;28;20030;-83
2023/07/21 04:21:47;;;;;;;2.60;0.88;;;20.30;85.00;;;;;;5111774;28;20104;-83
2023/07/21 04:24:13;;;;;;;2.67;1.10;;;20.60;84.10;;;;;;5111547;28;20034;-83
2023/07/21 04:26:39;;;;;;;2.28;0.80;;;21.00;81.80;;;;;;5112242;28;20016;-83
2023/07/21 04:29:06;;;;;;;4.30;1.13;;;21.40;80.40;;;;;;5118232;28;20398;-81
2023/07/21 04:31:31;;;;;;;4.22;1.17;;;21.70;77.60;;;;;;5118527;28;20047;-82
2023/07/21 04:33:57;;;;;;;2.92;1.15;;;22.10;75.40;;;;;;5100331;28;20115;-83
2023/07/21 04:36:23;;;;;;;2.15;1.17;;;22.30;74.00;;;;;;5118577;28;20036;-84
2023/07/21 04:38:49;;;;;;;2.08;1.05;;;22.20;73.30;;;;;;5100558;28;20032;-83
2023/07/21 04:41:15;;;;;;;2.40;1.33;;;22.10;72.70;;;;;;5118963;28;20085;-83
2023/07/21 04:43:40;;;;;;;6.07;1.58;;;22.10;73.30;;;;;;5118528;28;20073;-82
2023/07/21 04:46:06;;;;;;;1.70;0.70;;;22.10;72.30;;;;;;5118456;28;20034;-83
2023/07/21 04:48:31;;;;;;;1.50;0.88;;;22.20;72.40;;;;;;5100423;28;20028;-83
2023/07/21 04:50:57;;;;;;;2.28;0.75;;;22.20;72.00;;;;;;5100126;28;20019;-83
2023/07/21 04:53:24;;;;;;;3.13;0.85;;;22.30;71.90;;;;;;5099857;28;20072;-81
2023/07/21 04:55:54;;;;;;;3.97;1.13;;;22.20;71.90;;;;;;5118454;28;20102;-83
2023/07/21 04:58:20;;;;;;;3.20;1.15;;;22.30;70.40;;;;;;5100482;28;20104;-83
2023/07/21 05:00:45;;;;;;;3.15;0.60;;;22.40;70.70;;;;;;5118514;28;20488;-83
2023/07/21 05:03:12;;;;;;;4.53;1.15;;;22.40;70.60;;;;;;5118264;28;20016;-82
2023/07/21 05:05:38;;;;;;;3.28;1.80;;;22.60;70.70;;;;;;5099711;28;20108;-82
2023/07/21 05:08:04;;;;;;;2.47;0.88;;;22.70;69.40;;;;;;5099795;28;20500;-83
2023/07/21 05:10:31;;;;;;;2.92;0.90;;;22.90;68.50;;;;;;5118140;28;20502;-82
2023/07/21 05:13:00;;;;;;;6.38;0.95;;;23.10;67.30;;;;;;5099891;28;20119;-82
2023/07/21 05:15:26;;;;;;;1.83;0.70;;;23.30;67.10;;;;;;5099627;28;20422;-83
2023/07/21 05:17:51;;;;;;;5.30;1.48;;;23.30;65.60;;;;;;5118339;28;20035;-83
2023/07/21 05:20:19;;;;;;;2.88;0.70;;;23.50;65.90;;;;;;5118131;28;20483;-83
2023/07/21 05:22:46;;;;;;;2.72;1.00;;;23.60;64.60;;;;;;5118578;28;20501;-83
2023/07/21 05:25:16;;;;;;;2.15;0.82;;;23.50;63.60;;;;;;5100144;28;20038;-83
2023/07/21 05:27:42;;;;;;;4.10;1.17;;;23.30;64.00;;;;;;5099592;28;20027;-82
2023/07/21 05:30:11;;;;;;;5.53;0.93;;;23.30;63.50;;;;;;5117619;28;20032;-84
2023/07/21 05:32:39;;;;;;;2.50;1.08;;;23.40;64.20;;;;;;5117947;28;20441;-83
2023/07/21 05:35:09;;;;;;;3.33;0.90;;;23.40;63.40;;;;;;5117769;28;20055;-83
2023/07/21 05:37:35;;;;;;;1.98;0.80;;;23.60;63.70;;;;;;5118119;28;20031;-84
2023/07/21 05:40:00;;;;;;;5.90;0.80;;;23.50;63.30;;;;;;5114509;28;20016;-84
2023/07/21 05:42:26;;;;;;;2.58;0.98;;;23.60;62.80;;;;;;5096424;28;20058;-84
2023/07/21 05:44:52;;;;;;;3.35;0.77;;;23.70;63.40;;;;;;5114753;28;20492;-84
2023/07/21 05:47:19;;;;;;;3.88;0.90;;;23.80;62.60;;;;;;5096676;28;20134;-83
2023/07/21 05:49:45;;;;;;;3.80;1.15;;;23.80;61.80;;;;;;5114465;28;20019;-83
2023/07/21 05:52:10;;;;;;;1.52;0.80;;;24.10;62.00;;;;;;5114613;28;20361;-83
2023/07/21 05:54:37;;;;;;;7.75;0.60;;;24.50;61.40;;;;;;5096405;28;20016;-84
2023/07/21 05:57:03;;;;;;;3.15;1.13;;;24.90;60.60;;;;;;5114452;28;20040;-83
2023/07/21 05:59:32;;;;;;;1.95;0.90;;;25.20;59.00;;;;;;5114641;28;20102;-84
2023/07/21 06:02:00;;;;;;;3.83;0.80;;;25.40;57.20;;;;;;5096614;28;20045;-84
2023/07/21 06:04:26;;;;;;;2.45;1.15;;;25.20;57.70;;;;;;5096693;28;20112;-82
2023/07/21 06:06:54;;;;;;;6.82;1.92;;;25.00;57.60;;;;;;5096327;28;20030;-84
2023/07/21 06:09:19;;;;;;;2.72;1.20;;;24.90;58.60;;;;;;5096445;28;20035;-83
2023/07/21 06:11:45;;;;;;;3.08;1.20;;;24.70;58.30;;;;;;5096532;28;20020;-83
2023/07/21 06:14:11;;;;;;;5.82;1.38;;;24.40;58.70;;;;;;5095799;28;20438;-84
2023/07/21 06:16:36;;;;;;;2.10;0.70;;;24.20;59.70;;;;;;5095742;28;20035;-84
2023/07/21 06:19:02;;;;;;;2.88;1.08;;;24.10;60.40;;;;;;5113676;28;20069;-83
2023/07/21 06:21:28;;;;;;;4.93;1.27;;;24.10;60.80;;;;;;5113921;28;20039;-82
2023/07/21 06:23:53;;;;;;;5.40;1.10;;;24.10;61.30;;;;;;5113917;28;20401;-84
2023/07/21 06:26:19;;;;;;;6.85;1.63;;;24.00;61.90;;;;;;5095874;28;20024;-83
2023/07/21 06:28:45;;;;;;;2.70;0.82;;;23.90;62.00;;;;;;5095730;28;20027;-84
2023/07/21 06:31:12;;;;;;;2.60;0.95;;;23.80;62.70;;;;;;5113950;28;20130;-84
2023/07/21 06:33:38;;;;;;;3.08;1.13;;;23.90;63.00;;;;;;5113834;28;20020;-84
2023/07/21 06:36:04;;;;;;;1.88;1.08;;;24.00;62.30;;;;;;5114010;28;20085;-84
2023/07/21 06:38:30;;;;;;;2.88;1.10;;;24.00;62.50;;;;;;5095914;28;20027;-84
2023/07/21 06:40:55;;;;;;;2.92;1.23;;;24.10;62.40;;;;;;5114173;28;20080;-84
2023/07/21 06:43:21;;;;;;;4.40;1.13;;;24.20;63.50;;;;;;5113971;28;20047;-83
2023/07/21 06:45:47;;;;;;;3.75;1.02;;;24.40;63.00;;;;;;5095927;28;20024;-84
2023/07/21 06:48:12;;;;;;;4.28;1.15;;;24.40;61.60;;;;;;5095664;28;20043;-84
2023/07/21 06:50:38;;;;;;;4.70;1.10;;;24.30;62.10;;;;;;5094255;28;20399;-84
2023/07/21 06:53:05;;;;;;;3.25;1.17;;;24.20;62.00;;;;;;5113862;28;20019;-83
2023/07/21 06:55:33;;;;;;;3.53;1.20;;;24.10;62.90;;;;;;5095559;28;20408;-83
2023/07/21 06:57:59;;;;;;;7.47;1.40;;;23.90;62.50;;;;;;5094985;28;20019;-84
2023/07/21 07:00:25;;;;;;;3.47;1.05;;;23.80;62.30;;;;;;5094315;28;20469;-84
2023/07/21 07:02:50;;;;;;;2.80;1.10;;;23.70;63.70;;;;;;5112831;28;20035;-84
2023/07/21 07:05:17;;;;;;;2.97;1.15;;;23.50;63.60;;;;;;5113655;28;20051;-83
2023/07/21 07:07:42;;;;;;;4.20;1.00;;;23.30;64.20;;;;;;5113713;28;20016;-84
2023/07/21 07:10:09;;;;;;;5.97;1.17;;;23.30;64.80;;;;;;5113819;28;20076;-84
2023/07/21 07:12:35;;;;;;;9.00;1.20;;;23.30;65.20;;;;;;5094986;28;20111;-84
2023/07/21 07:15:00;;;;;;;4.95;0.95;;;23.30;65.50;;;;;;5112882;28;20102;-83
2023/07/21 07:17:26;;;;;;;7.07;1.73;;;23.30;65.50;;;;;;5095290;28;20422;-84
2023/07/21 07:19:51;;;;;;;6.22;1.48;;;23.30;65.80;;;;;;5095245;28;20494;-84
2023/07/21 07:22:17;;;;;;;1.42;0.70;;;23.30;65.90;;;;;;5113076;28;20423;-84
2023/07/21 07:24:43;;;;;;;2.97;1.10;;;23.40;66.00;;;;;;5094930;28;20515;-84
2023/07/21 07:27:09;;;;;;;4.45;1.27;;;23.40;66.30;;;;;;5112848;28;20043;-83
2023/07/21 07:29:35;;;;;;;1.95;1.13;;;23.50;65.90;;;;;;5112722;28;20055;-82
2023/07/21 07:32:01;;;;;;;6.47;1.50;;;23.60;65.90;;;;;;5113269;28;20053;-84
2023/07/21 07:34:27;;;;;;;4.55;1.45;;;23.70;65.70;;;;;;5113261;28;20032;-83
2023/07/21 07:36:53;;;;;;;4.82;1.75;;;23.90;66.00;;;;;;5095289;28;20031;-84
2023/07/21 07:39:18;;;;;;;6.18;1.27;;;24.10;65.50;;;;;;5113293;28;20055;-84
2023/07/21 07:41:49;;;;;;;3.65;1.20;;;24.20;65.70;;;;;;5094477;28;20072;-84
2023/07/21 07:44:15;;;;;;;6.32;1.45;;;24.40;65.90;;;;;;5113053;28;20458;-83
2023/07/21 07:46:41;;;;;;;4.13;1.63;;;24.70;64.80;;;;;;5112804;28;20537;-84
2023/07/21 07:49:07;;;;;;;4.20;1.50;;;24.70;64.00;;;;;;5094493;28;20038;-84
2023/07/21 07:51:38;;;;;;;2.00;1.00;;;24.80;64.30;;;;;;5112888;28;20102;-84
2023/07/21 07:54:07;;;;;;;3.47;1.30;;;24.90;64.20;;;;;;5094881;28;20538;-83
2023/07/21 07:56:33;;;;;;;7.55;1.67;;;25.00;64.20;;;;;;5112751;28;20251;-84
2023/07/21 07:58:59;;;;;;;3.63;1.50;;;25.00;64.30;;;;;;5094446;28;20027;-83
2023/07/21 08:01:26;;;;;;;2.45;1.15;;;25.00;64.60;;;;;;5112582;28;20534;-84
2023/07/21 08:03:53;;;;;;;3.28;1.48;;;25.00;64.40;;;;;;5112435;28;20034;-84
2023/07/21 08:06:19;;;;;;;2.53;1.15;;;25.10;64.20;;;;;;5112609;28;20031;-83
2023/07/21 08:08:46;;;;;;;6.40;1.40;;;24.90;64.00;;;;;;5112216;28;20020;-84
2023/07/21 08:11:12;;;;;;;3.70;1.70;;;24.90;64.30;;;;;;5094119;28;20031;-84
2023/07/21 08:13:39;;;;;;;3.97;1.38;;;25.00;66.20;;;;;;5112351;28;20020;-83
2023/07/21 08:16:13;;;;;;;3.78;1.42;;;25.20;65.60;;;;;;5112601;28;20032;-83
2023/07/21 08:18:38;;;;;;;8.30;2.33;;;25.40;65.30;;;;;;5111975;28;20023;-84
2023/07/21 08:21:17;;;;;;;5.43;1.52;;;25.40;64.00;;;;;;5093844;28;20035;-83
2023/07/21 08:23:43;;;;;;;4.47;1.38;;;25.30;64.30;;;;;;5093798;28;20028;-83
2023/07/21 08:26:09;;;;;;;2.72;1.23;;;25.20;64.70;;;;;;5111916;28;20032;-84
2023/07/21 08:28:34;;;;;;;4.63;1.33;;;25.20;65.10;;;;;;5112427;28;20053;-83
2023/07/21 08:31:00;;;;;;;13.13;1.77;;;25.30;64.10;;;;;;5112089;28;20052;-83
2023/07/21 08:33:26;;;;;;;4.82;1.85;;;25.30;64.80;;;;;;5093981;28;20023;-83
2023/07/21 08:35:52;;;;;;;3.53;1.52;;;25.50;64.50;;;;;;5111925;28;20071;-83
2023/07/21 08:38:18;;;;;;;6.82;1.67;;;25.50;63.20;;;;;;5112051;28;20055;-83
2023/07/21 08:40:49;;;;;;;3.25;1.10;;;25.70;62.60;;;;;;5094019;28;20027;-83
2023/07/21 08:43:15;;;;;;;5.25;1.95;;;25.80;63.60;;;;;;5093384;28;20023;-81
2023/07/21 08:45:44;;;;;;;4.25;1.73;;;25.90;61.30;;;;;;5111074;28;20076;-82
2023/07/21 08:48:10;;;;;;;6.07;1.55;;;25.90;62.50;;;;;;5093544;28;20076;-80
2023/07/21 08:50:36;;;;;;;4.28;1.13;;;25.80;62.30;;;;;;5112111;28;20514;-80
2023/07/21 08:53:03;;;;;;;4.47;1.63;;;25.80;62.20;;;;;;5093746;28;20391;-81
2023/07/21 08:55:29;;;;;;;5.15;1.70;;;25.80;62.20;;;;;;5093676;28;20035;-81
2023/07/21 08:58:01;;;;;;;3.95;1.75;;;26.00;61.70;;;;;;5094277;28;20096;-82
2023/07/21 09:00:27;;;;;;;3.63;1.50;;;26.30;62.50;;;;;;5093024;28;20088;-82
2023/07/21 09:03:02;;;;;;;5.13;1.70;;;26.50;60.60;;;;;;5111605;28;20036;-84
2023/07/21 09:05:28;;;;;;;3.72;1.60;;;26.60;60.20;;;;;;5093378;28;20082;-84
2023/07/21 09:07:54;;;;;;;3.15;1.30;;;27.00;59.90;;;;;;5111741;28;20044;-83
2023/07/21 09:10:35;;;;;;;4.35;1.38;;;27.20;58.50;;;;;;5093472;28;20028;-83
2023/07/21 09:13:01;;;;;;;8.50;2.22;;;27.20;58.50;;;;;;5093357;28;20066;-84
2023/07/21 09:15:27;;;;;;;4.15;2.15;;;27.20;58.50;;;;;;5096573;28;20520;-84
2023/07/21 09:17:53;;;;;;;6.63;2.10;;;27.30;58.40;;;;;;5115640;28;20023;-83
2023/07/21 09:20:19;;;;;;;4.72;1.77;;;27.80;58.80;;;;;;5115498;28;20030;-83
2023/07/21 09:22:48;;;;;;;5.10;1.45;;;28.20;57.40;;;;;;5115624;28;20055;-83
2023/07/21 09:25:22;;;;;;;10.52;1.88;;;28.50;56.60;;;;;;5115265;28;20034;-84
2023/07/21 09:27:55;;;;;;;3.92;1.48;;;29.10;57.50;;;;;;5115167;28;20041;-84
2023/07/21 09:30:21;;;;;;;5.20;1.67;;;29.90;54.40;;;;;;5096776;28;20047;-83
2023/07/21 09:32:46;;;;;;;8.13;2.25;;;30.00;53.40;;;;;;5096986;28;20032;-84
2023/07/21 09:35:12;;;;;;;6.68;2.35;;;29.70;52.70;;;;;;5096923;28;20034;-84
2023/07/21 09:37:38;;;;;;;3.97;1.63;;;29.60;53.40;;;;;;5114835;28;20028;-81
2023/07/21 09:40:09;;;;;;;9.27;1.80;;;29.50;53.20;;;;;;5096777;28;20024;-82
2023/07/21 09:42:35;;;;;;;6.93;1.98;;;29.60;53.00;;;;;;5096889;28;20023;-83
2023/07/21 09:45:01;;;;;;;14.57;2.17;;;29.20;53.90;;;;;;5115113;28;20060;-84
2023/07/21 09:47:27;;;;;;;7.30;2.15;;;29.10;53.70;;;;;;5114350;28;20031;-83
2023/07/21 09:49:55;;;;;;;9.85;2.10;;;28.70;54.00;;;;;;5095885;28;20036;-83
2023/07/21 09:52:22;;;;;;;6.68;2.00;;;28.20;54.80;;;;;;5096483;28;20027;-85
2023/07/21 09:55:05;;;;;;;11.32;1.60;;;28.10;55.60;;;;;;5114936;28;20082;-83
2023/07/21 09:57:34;;;;;;;9.27;2.10;;;28.20;56.60;;;;;;5114655;28;20063;-83
2023/07/21 10:00:07;;;;;;;9.52;2.28;;;28.10;56.40;;;;;;5114770;28;20484;-83
2023/07/21 10:02:35;;;;;;;5.03;1.88;;;28.00;56.20;;;;;;5114848;28;20140;-84
2023/07/21 10:05:04;;;;;;;4.43;1.75;;;27.90;56.90;;;;;;5114704;28;20016;-84
2023/07/21 10:07:32;;;;;;;3.60;1.63;;;28.00;56.90;;;;;;5096411;28;20027;-83
2023/07/21 10:09:59;;;;;;;6.15;1.63;;;27.90;56.70;;;;;;5096348;28;20056;-83
2023/07/21 10:12:49;;;;;;;3.97;1.30;;;27.60;56.80;;;;;;5114188;28;20495;-83
2023/07/21 10:15:20;;;;;;;11.40;2.88;;;27.40;58.60;;;;;;5114522;28;20133;-82
2023/07/21 10:17:59;;;;;;;12.10;2.53;;;27.50;58.30;;;;;;5114404;28;20440;-84
2023/07/21 10:20:37;;;;;;;10.77;3.15;;;27.30;58.40;;;;;;5096217;28;20020;-84
2023/07/21 10:23:03;;;;;;;10.25;1.92;;;27.10;58.50;;;;;;5096189;28;20032;-84
2023/07/21 10:25:29;;;;;;;4.00;1.92;;;26.90;58.80;;;;;;5095823;28;20507;-83
2023/07/21 10:28:04;;;;;;;5.38;1.83;;;26.80;60.00;;;;;;5114163;28;20034;-83
2023/07/21 10:30:30;;;;;;;11.00;2.60;;;26.70;58.70;;;;;;5095969;28;20067;-84
2023/07/21 10:33:09;;;;;;;9.18;2.88;;;26.60;59.40;;;;;;5094959;28;20024;-82
2023/07/21 10:35:39;;;;;;;7.03;2.00;;;26.50;59.60;;;;;;5095072;28;20407;-81
2023/07/21 10:38:24;;;;;;;7.07;1.88;;;26.50;60.70;;;;;;5113898;28;20126;-84
2023/07/21 10:40:50;;;;;;;5.68;1.58;;;26.50;60.40;;;;;;5095696;28;20019;-83
2023/07/21 10:43:16;;;;;;;3.70;1.77;;;26.50;60.60;;;;;;5095313;28;20034;-82
2023/07/21 10:45:41;;;;;;;2.03;1.30;;;26.40;61.20;;;;;;5112992;28;20036;-84
2023/07/21 10:48:16;;;;;;;7.00;1.65;;;26.30;61.80;;;;;;5095829;28;20077;-83
2023/07/21 10:50:48;;;;;;;3.67;1.83;;;26.40;61.60;;;;;;5095653;28;20467;-83
2023/07/21 10:53:15;;;;;;;4.53;1.58;;;26.30;61.70;;;;;;5095571;28;20028;-83
2023/07/21 10:55:41;;;;;;;10.20;1.92;;;26.30;61.50;;;;;;5113396;28;20026;-83
2023/07/21 10:58:07;;;;;;;5.40;1.67;;;26.50;60.80;;;;;;5095146;28;20039;-83
2023/07/21 11:00:50;;;;;;;18.30;1.95;;;26.70;60.90;;;;;;5094772;28;20447;-83
2023/07/21 11:03:18;;;;;;;3.60;1.40;;;27.10;60.00;;;;;;5113504;28;20392;-82
2023/07/21 11:05:44;;;;;;;10.18;1.90;;;27.30;59.40;;;;;;5113662;28;20020;-81
2023/07/21 11:08:26;;;;;;;3.85;1.63;;;27.30;59.30;;;;;;5113342;28;20496;-81
2023/07/21 11:10:53;;;;;;;3.60;1.77;;;27.20;60.00;;;;;;5113379;28;20015;-82
2023/07/21 11:13:19;;;;;;;7.43;1.80;;;27.20;60.30;;;;;;5113221;28;20036;-82
2023/07/21 11:15:54;;;;;;;11.18;2.15;;;27.00;58.90;;;;;;5113039;28;20039;-81
2023/07/21 11:18:21;;;;;;;5.95;2.42;;;27.00;60.40;;;;;;5094784;28;20111;-81
2023/07/21 11:20:51;;;;;;;4.78;1.52;;;27.00;60.90;;;;;;5094788;28;20106;-82
2023/07/21 11:23:17;;;;;;;6.22;1.58;;;27.00;59.20;;;;;;5113060;28;20110;-82
2023/07/21 11:26:10;;;;;;;5.13;1.50;;;27.00;60.00;;;;;;5113351;28;20494;-82
2023/07/21 11:28:40;;;;;;;7.25;1.35;;;26.90;60.30;;;;;;5113227;28;20035;-82
2023/07/21 11:31:13;;;;;;;6.85;1.70;;;27.00;60.10;;;;;;5112641;28;20101;-82
2023/07/21 11:33:40;;;;;;;4.65;1.48;;;26.90;59.60;;;;;;5094626;28;20053;-82
2023/07/21 11:36:22;;;;;;;40.78;32.95;;;26.70;60.00;;;;;;5112801;28;20032;-83
2023/07/21 11:38:59;;;;;;;8.13;2.75;;;26.60;61.40;;;;;;5093405;28;20115;-82
2023/07/21 11:41:40;;;;;;;9.27;1.70;;;26.60;62.10;;;;;;5094498;28;20519;-83
2023/07/21 11:44:20;;;;;;;6.05;1.40;;;26.70;61.90;;;;;;5094471;28;20051;-80
2023/07/21 11:47:07;;;;;;;8.20;1.70;;;26.70;60.50;;;;;;5112657;28;20023;-82
2023/07/21 11:49:40;;;;;;;6.47;1.38;;;26.80;63.00;;;;;;5094504;28;20019;-83
2023/07/21 11:52:08;;;;;;;3.22;1.50;;;27.20;62.30;;;;;;5094634;28;20031;-83
2023/07/21 11:54:39;;;;;;;6.72;1.40;;;27.40;61.50;;;;;;5093950;28;20019;-82
2023/07/21 11:57:06;;;;;;;3.05;1.35;;;27.60;58.60;;;;;;5112558;28;20038;-82
2023/07/21 11:59:32;;;;;;;8.57;1.48;;;27.40;59.50;;;;;;5112149;28;20015;-83
2023/07/21 12:01:58;;;;;;;11.30;1.52;;;27.30;59.30;;;;;;5111827;28;20106;-83
2023/07/21 12:04:24;;;;;;;8.45;2.03;;;27.10;60.40;;;;;;5112187;28;20018;-82
2023/07/21 12:06:51;;;;;;;6.15;1.40;;;26.90;60.30;;;;;;5094046;28;20023;-82
2023/07/21 12:09:19;;;;;;;8.82;1.67;;;26.90;60.90;;;;;;5112337;28;20134;-82
2023/07/21 12:11:45;;;;;;;9.68;1.70;;;26.80;61.00;;;;;;5112417;28;20015;-83
2023/07/21 12:14:11;;;;;;;3.08;1.08;;;26.80;60.60;;;;;;5094030;28;20484;-82
2023/07/21 12:16:37;;;;;;;4.60;1.25;;;26.70;60.80;;;;;;5111922;28;20038;-83
2023/07/21 12:19:03;;;;;;;3.03;1.25;;;26.60;60.70;;;;;;5093127;28;20419;-82
2023/07/21 12:21:30;;;;;;;10.80;2.03;;;26.70;61.60;;;;;;5093432;28;20111;-83
2023/07/21 12:23:56;;;;;;;5.00;1.25;;;26.60;61.20;;;;;;5093832;28;20467;-83
2023/07/21 12:26:23;;;;;;;4.47;1.30;;;26.40;61.90;;;;;;5094148;28;20492;-83
2023/07/21 12:28:50;;;;;;;5.95;2.05;;;26.30;62.20;;;;;;5111732;28;20021;-83
2023/07/21 12:31:18;;;;;;;7.85;1.50;;;26.30;61.90;;;;;;5111687;28;20519;-83
2023/07/21 12:33:45;;;;;;;6.03;1.42;;;26.10;61.00;;;;;;5112001;28;20065;-83
2023/07/21 12:36:15;;;;;;;10.43;1.55;;;25.90;61.30;;;;;;5093062;28;20412;-84
2023/07/21 12:38:41;;;;;;;5.07;1.80;;;25.80;62.20;;;;;;5092940;28;20080;-82
2023/07/21 12:41:07;;;;;;;3.55;1.40;;;25.70;62.90;;;;;;5111540;28;20020;-82
2023/07/21 12:43:33;;;;;;;9.35;1.60;;;25.60;63.60;;;;;;5111841;28;20036;-84
2023/07/21 12:46:03;;;;;;;2.13;1.20;;;25.60;66.20;;;;;;5112070;28;20026;-83
2023/07/21 12:48:30;;;;;;;4.25;1.27;;;25.50;68.20;;;;;;5113528;28;20103;-83